sensor_id;sensor_type;location;lat;lon;timestamp;pressure;altitude;pressure_sealevel;temperature;humidity
20228;BME280;12195;55.790;37.572;2023-05-13T00:00:56;100167.90;;;13.53;41.76
20228;BME280;12195;55.790;37.572;2023-05-13T00:03:29;100168.73;;;13.54;42.24
20228;BME280;12195;55.790;37.572;2023-05-13T00:06:02;100168.17;;;13.63;41.20
20228;BME280;12195;55.790;37.572;2023-05-13T00:08:35;100170.55;;;13.67;41.46
20228;BME280;12195;55.790;37.572;2023-05-13T00:11:07;100171.89;;;13.74;40.37
20228;BME280;12195;55.790;37.572;2023-05-13T00:13:39;100167.83;;;13.83;40.50
20228;BME280;12195;55.790;37.572;2023-05-13T00:16:12;100165.58;;;13.91;40.12
20228;BME280;12195;55.790;37.572;2023-05-13T00:18:44;100177.56;;;13.96;39.75
20228;BME280;12195;55.790;37.572;2023-05-13T00:21:16;100173.05;;;13.98;39.67
20228;BME280;12195;55.790;37.572;2023-05-13T00:23:49;100176.34;;;14.02;39.52
20228;BME280;12195;55.790;37.572;2023-05-13T00:26:21;100185.95;;;14.03;39.69
20228;BME280;12195;55.790;37.572;2023-05-13T00:28:54;100176.26;;;14.03;39.45
20228;BME280;12195;55.790;37.572;2023-05-13T00:31:26;100181.36;;;14.06;39.34
20228;BME280;12195;55.790;37.572;2023-05-13T00:33:58;100178.72;;;14.06;39.60
20228;BME280;12195;55.790;37.572;2023-05-13T00:36:31;100187.29;;;14.10;39.19
20228;BME280;12195;55.790;37.572;2023-05-13T00:39:04;100186.52;;;14.08;39.48
20228;BME280;12195;55.790;37.572;2023-05-13T00:41:36;100193.70;;;14.06;39.86
20228;BME280;12195;55.790;37.572;2023-05-13T00:44:08;100176.44;;;14.00;39.95
20228;BME280;12195;55.790;37.572;2023-05-13T00:46:42;100176.44;;;14.00;39.95
20228;BME280;12195;55.790;37.572;2023-05-13T00:49:15;100180.30;;;13.95;40.13
20228;BME280;12195;55.790;37.572;2023-05-13T00:51:47;100188.22;;;13.95;39.69
20228;BME280;12195;55.790;37.572;2023-05-13T00:54:21;100187.47;;;13.93;39.51
20228;BME280;12195;55.790;37.572;2023-05-13T00:56:53;100186.70;;;13.91;40.05
20228;BME280;12195;55.790;37.572;2023-05-13T00:59:28;100178.04;;;13.89;39.60
20228;BME280;12195;55.790;37.572;2023-05-13T01:02:40;100187.00;;;13.86;40.21
20228;BME280;12195;55.790;37.572;2023-05-13T01:05:08;100188.12;;;13.82;40.32
20228;BME280;12195;55.790;37.572;2023-05-13T01:07:55;100192.54;;;13.82;40.39
20228;BME280;12195;55.790;37.572;2023-05-13T01:13:22;100191.20;;;13.75;40.85
20228;BME280;12195;55.790;37.572;2023-05-13T01:18:51;100193.36;;;13.68;40.86
20228;BME280;12195;55.790;37.572;2023-05-13T01:21:27;100190.23;;;13.62;40.69
20228;BME280;12195;55.790;37.572;2023-05-13T01:23:59;100192.30;;;13.57;41.19
20228;BME280;12195;55.790;37.572;2023-05-13T01:26:33;100190.61;;;13.56;40.81
20228;BME280;12195;55.790;37.572;2023-05-13T01:29:05;100191.44;;;13.56;41.29
20228;BME280;12195;55.790;37.572;2023-05-13T01:31:38;100197.58;;;13.57;40.97
20228;BME280;12195;55.790;37.572;2023-05-13T01:34:13;100197.41;;;13.60;40.92
20228;BME280;12195;55.790;37.572;2023-05-13T01:36:47;100197.41;;;13.60;40.81
20228;BME280;12195;55.790;37.572;2023-05-13T01:39:20;100196.46;;;13.61;40.60
20228;BME280;12195;55.790;37.572;2023-05-13T01:41:55;100203.34;;;13.63;40.44
20228;BME280;12195;55.790;37.572;2023-05-13T01:44:27;100206.93;;;13.62;40.76
20228;BME280;12195;55.790;37.572;2023-05-13T01:47:01;100203.34;;;13.63;41.31
20228;BME280;12195;55.790;37.572;2023-05-13T01:49:33;100226.23;;;13.63;41.49
20228;BME280;12195;55.790;37.572;2023-05-13T01:52:05;100231.71;;;13.60;41.72
20228;BME280;12195;55.790;37.572;2023-05-13T01:54:37;100213.58;;;13.54;41.70
20228;BME280;12195;55.790;37.572;2023-05-13T01:57:11;100215.56;;;13.50;42.20
20228;BME280;12195;55.790;37.572;2023-05-13T01:59:43;100220.92;;;13.49;42.21
20228;BME280;12195;55.790;37.572;2023-05-13T02:02:16;100219.31;;;13.46;42.11
20228;BME280;12195;55.790;37.572;2023-05-13T02:04:48;100228.06;;;13.47;42.43
20228;BME280;12195;55.790;37.572;2023-05-13T02:07:21;100234.28;;;13.46;42.62
20228;BME280;12195;55.790;37.572;2023-05-13T02:09:53;100228.43;;;13.41;43.05
20228;BME280;12195;55.790;37.572;2023-05-13T02:12:27;100239.93;;;13.40;42.92
20228;BME280;12195;55.790;37.572;2023-05-13T02:14:59;100240.09;;;13.37;43.24
20228;BME280;12195;55.790;37.572;2023-05-13T02:17:34;100243.59;;;13.37;43.10
20228;BME280;12195;55.790;37.572;2023-05-13T02:20:07;100245.20;;;13.40;42.75
20228;BME280;12195;55.790;37.572;2023-05-13T02:22:40;100244.92;;;13.44;43.03
20228;BME280;12195;55.790;37.572;2023-05-13T02:25:12;100243.89;;;13.47;42.87
20228;BME280;12195;55.790;37.572;2023-05-13T02:27:44;100234.03;;;13.50;42.96
20228;BME280;12195;55.790;37.572;2023-05-13T02:30:16;100235.64;;;13.53;42.95
20228;BME280;12195;55.790;37.572;2023-05-13T02:32:49;100236.13;;;13.59;42.29
20228;BME280;12195;55.790;37.572;2023-05-13T02:35:21;100241.16;;;13.64;42.09
20228;BME280;12195;55.790;37.572;2023-05-13T02:37:56;100242.67;;;13.68;42.56
20228;BME280;12195;55.790;37.572;2023-05-13T02:40:28;100243.24;;;13.73;42.41
20228;BME280;12195;55.790;37.572;2023-05-13T02:43:01;100235.24;;;13.74;42.05
20228;BME280;12195;55.790;37.572;2023-05-13T02:45:35;100247.23;;;13.80;41.75
20228;BME280;12195;55.790;37.572;2023-05-13T02:48:07;100242.61;;;13.83;42.08
20228;BME280;12195;55.790;37.572;2023-05-13T02:50:41;100252.13;;;13.86;41.93
20228;BME280;12195;55.790;37.572;2023-05-13T02:53:14;100243.95;;;13.90;42.29
20228;BME280;12195;55.790;37.572;2023-05-13T02:55:47;100246.30;;;13.95;42.23
20228;BME280;12195;55.790;37.572;2023-05-13T02:58:19;100250.28;;;14.16;41.01
20228;BME280;12195;55.790;37.572;2023-05-13T03:00:52;100248.98;;;14.09;41.55
20228;BME280;12195;55.790;37.572;2023-05-13T03:03:25;100246.91;;;14.14;41.37
20228;BME280;12195;55.790;37.572;2023-05-13T03:06:00;100245.78;;;14.18;41.58
20228;BME280;12195;55.790;37.572;2023-05-13T03:08:32;100252.61;;;14.22;41.49
20228;BME280;12195;55.790;37.572;2023-05-13T03:11:04;100260.36;;;14.25;41.20
20228;BME280;12195;55.790;37.572;2023-05-13T03:13:36;100251.18;;;14.30;41.13
20228;BME280;12195;55.790;37.572;2023-05-13T03:16:09;100250.05;;;14.34;41.55
20228;BME280;12195;55.790;37.572;2023-05-13T03:18:41;100245.23;;;14.41;41.50
20228;BME280;12195;55.790;37.572;2023-05-13T03:21:13;100251.11;;;14.46;41.36
20228;BME280;12195;55.790;37.572;2023-05-13T03:23:46;100254.31;;;14.51;40.52
20228;BME280;12195;55.790;37.572;2023-05-13T03:26:19;100255.82;;;14.55;41.74
20228;BME280;12195;55.790;37.572;2023-05-13T03:28:52;100260.71;;;14.61;41.71
20228;BME280;12195;55.790;37.572;2023-05-13T03:31:24;100259.39;;;14.68;41.75
20228;BME280;12195;55.790;37.572;2023-05-13T03:33:57;100263.36;;;14.75;41.28
20228;BME280;12195;55.790;37.572;2023-05-13T03:36:31;100264.65;;;14.82;40.43
20228;BME280;12195;55.790;37.572;2023-05-13T03:39:03;100266.74;;;14.91;40.37
20228;BME280;12195;55.790;37.572;2023-05-13T03:41:36;100263.78;;;14.95;40.62
20228;BME280;12195;55.790;37.572;2023-05-13T03:44:08;100268.70;;;15.01;40.85
20228;BME280;12195;55.790;37.572;2023-05-13T03:46:40;100273.40;;;15.10;40.42
20228;BME280;12195;55.790;37.572;2023-05-13T03:49:13;100268.56;;;15.17;40.19
20228;BME280;12195;55.790;37.572;2023-05-13T03:51:45;100266.37;;;15.23;40.03
20228;BME280;12195;55.790;37.572;2023-05-13T03:54:18;100262.58;;;15.27;39.73
20228;BME280;12195;55.790;37.572;2023-05-13T03:56:50;100269.27;;;15.33;40.01
20228;BME280;12195;55.790;37.572;2023-05-13T03:59:23;100261.91;;;15.38;40.22
20228;BME280;12195;55.790;37.572;2023-05-13T04:01:55;100267.89;;;15.54;39.91
20228;BME280;12195;55.790;37.572;2023-05-13T04:04:27;100243.53;;;15.49;39.82
20228;BME280;12195;55.790;37.572;2023-05-13T04:07:00;100243.53;;;15.49;39.82
20228;BME280;12195;55.790;37.572;2023-05-13T04:09:33;100264.34;;;15.67;39.52
20228;BME280;12195;55.790;37.572;2023-05-13T04:12:05;100258.42;;;15.76;39.46
20228;BME280;12195;55.790;37.572;2023-05-13T04:14:38;100268.50;;;15.84;39.17
20228;BME280;12195;55.790;37.572;2023-05-13T04:17:11;100255.91;;;16.00;38.61
20228;BME280;12195;55.790;37.572;2023-05-13T04:19:43;100255.91;;;16.00;38.61
20228;BME280;12195;55.790;37.572;2023-05-13T04:22:16;100252.63;;;16.09;38.47
20228;BME280;12195;55.790;37.572;2023-05-13T04:24:48;100256.79;;;16.26;38.16
20228;BME280;12195;55.790;37.572;2023-05-13T04:27:25;100256.79;;;16.26;38.16
20228;BME280;12195;55.790;37.572;2023-05-13T04:29:59;100260.63;;;16.34;37.32
20228;BME280;12195;55.790;37.572;2023-05-13T04:32:33;100259.15;;;16.43;37.34
20228;BME280;12195;55.790;37.572;2023-05-13T04:35:09;100258.40;;;16.53;37.27
20228;BME280;12195;55.790;37.572;2023-05-13T04:37:42;100263.19;;;16.61;36.62
20228;BME280;12195;55.790;37.572;2023-05-13T04:40:16;100260.95;;;16.67;36.53
20228;BME280;12195;55.790;37.572;2023-05-13T04:42:50;100256.16;;;16.72;36.38
20228;BME280;12195;55.790;37.572;2023-05-13T04:45:25;100265.48;;;16.78;36.15
20228;BME280;12195;55.790;37.572;2023-05-13T04:47:57;100262.48;;;16.82;36.19
20228;BME280;12195;55.790;37.572;2023-05-13T04:50:30;100258.45;;;16.89;36.02
20228;BME280;12195;55.790;37.572;2023-05-13T04:53:04;100272.02;;;16.97;35.69
20228;BME280;12195;55.790;37.572;2023-05-13T04:55:36;100268.08;;;17.03;35.50
20228;BME280;12195;55.790;37.572;2023-05-13T04:58:08;100269.20;;;17.11;35.47
20228;BME280;12195;55.790;37.572;2023-05-13T05:00:40;100270.46;;;17.18;35.58
20228;BME280;12195;55.790;37.572;2023-05-13T05:03:13;100269.78;;;17.27;35.13
20228;BME280;12195;55.790;37.572;2023-05-13T05:05:46;100270.18;;;17.34;34.79
20228;BME280;12195;55.790;37.572;2023-05-13T05:08:18;100267.73;;;17.43;34.41
20228;BME280;12195;55.790;37.572;2023-05-13T05:10:52;100261.52;;;17.55;34.79
20228;BME280;12195;55.790;37.572;2023-05-13T05:13:25;100262.55;;;17.65;34.32
20228;BME280;12195;55.790;37.572;2023-05-13T05:15:57;100260.88;;;17.75;34.12
20228;BME280;12195;55.790;37.572;2023-05-13T05:18:31;100262.62;;;17.87;34.47
20228;BME280;12195;55.790;37.572;2023-05-13T05:21:07;100268.58;;;18.02;34.08
20228;BME280;12195;55.790;37.572;2023-05-13T05:23:39;100260.53;;;18.14;33.58
20228;BME280;12195;55.790;37.572;2023-05-13T05:26:13;100265.13;;;18.23;32.47
20228;BME280;12195;55.790;37.572;2023-05-13T05:28:45;100261.88;;;18.31;32.83
20228;BME280;12195;55.790;37.572;2023-05-13T05:31:19;100254.18;;;18.39;32.46
20228;BME280;12195;55.790;37.572;2023-05-13T05:33:52;100263.13;;;18.49;32.70
20228;BME280;12195;55.790;37.572;2023-05-13T05:36:25;100263.37;;;18.57;32.08
20228;BME280;12195;55.790;37.572;2023-05-13T05:38:57;100263.61;;;18.65;31.99
20228;BME280;12195;55.790;37.572;2023-05-13T05:41:31;100265.92;;;18.69;31.31
20228;BME280;12195;55.790;37.572;2023-05-13T05:44:04;100268.47;;;18.71;30.85
20228;BME280;12195;55.790;37.572;2023-05-13T05:46:36;100268.95;;;18.76;31.55
20228;BME280;12195;55.790;37.572;2023-05-13T05:49:09;100272.94;;;18.81;31.81
20228;BME280;12195;55.790;37.572;2023-05-13T05:51:42;100273.18;;;18.89;31.84
20228;BME280;12195;55.790;37.572;2023-05-13T05:54:14;100273.66;;;18.94;31.37
20228;BME280;12195;55.790;37.572;2023-05-13T05:56:46;100269.27;;;19.04;30.83
20228;BME280;12195;55.790;37.572;2023-05-13T05:59:19;100280.16;;;19.12;30.20
20228;BME280;12195;55.790;37.572;2023-05-13T06:01:52;100277.98;;;19.17;30.19
20228;BME280;12195;55.790;37.572;2023-05-13T06:04:24;100275.05;;;19.20;29.67
20228;BME280;12195;55.790;37.572;2023-05-13T06:06:56;100274.94;;;19.22;29.52
20228;BME280;12195;55.790;37.572;2023-05-13T06:09:29;100276.53;;;19.24;29.78
20228;BME280;12195;55.790;37.572;2023-05-13T06:12:02;100271.43;;;19.32;30.12
20228;BME280;12195;55.790;37.572;2023-05-13T06:14:35;100273.38;;;19.41;28.96
20228;BME280;12195;55.790;37.572;2023-05-13T06:17:07;100270.89;;;19.49;29.00
20228;BME280;12195;55.790;37.572;2023-05-13T06:19:40;100271.20;;;19.67;29.16
20228;BME280;12195;55.790;37.572;2023-05-13T06:22:14;100265.26;;;19.95;28.34
20228;BME280;12195;55.790;37.572;2023-05-13T06:24:46;100272.58;;;20.13;28.54
20228;BME280;12195;55.790;37.572;2023-05-13T06:27:19;100275.82;;;20.17;27.95
20228;BME280;12195;55.790;37.572;2023-05-13T06:29:52;100263.02;;;20.11;28.06
20228;BME280;12195;55.790;37.572;2023-05-13T06:32:24;100266.89;;;20.07;28.16
20228;BME280;12195;55.790;37.572;2023-05-13T06:34:57;100267.02;;;20.05;28.73
20228;BME280;12195;55.790;37.572;2023-05-13T06:37:31;100268.70;;;20.06;28.66
20228;BME280;12195;55.790;37.572;2023-05-13T06:40:04;100262.17;;;20.10;28.98
20228;BME280;12195;55.790;37.572;2023-05-13T06:42:41;100268.93;;;20.14;28.65
20228;BME280;12195;55.790;37.572;2023-05-13T06:45:17;100262.48;;;20.17;28.76
20228;BME280;12195;55.790;37.572;2023-05-13T06:47:52;100260.68;;;20.17;28.72
20228;BME280;12195;55.790;37.572;2023-05-13T06:50:25;100247.59;;;20.14;28.58
20228;BME280;12195;55.790;37.572;2023-05-13T06:52:57;100251.44;;;20.21;28.58
20228;BME280;12195;55.790;37.572;2023-05-13T06:55:31;100253.44;;;20.29;28.62
20228;BME280;12195;55.790;37.572;2023-05-13T06:58:05;100261.19;;;20.32;28.24
20228;BME280;12195;55.790;37.572;2023-05-13T07:00:40;100261.50;;;20.38;27.96
20228;BME280;12195;55.790;37.572;2023-05-13T07:03:13;100257.47;;;20.44;28.00
20228;BME280;12195;55.790;37.572;2023-05-13T07:05:47;100250.76;;;20.49;28.03
20228;BME280;12195;55.790;37.572;2023-05-13T07:08:21;100254.72;;;20.55;27.96
20228;BME280;12195;55.790;37.572;2023-05-13T07:10:54;100251.06;;;20.56;28.10
20228;BME280;12195;55.790;37.572;2023-05-13T07:13:26;100249.95;;;20.58;28.60
20228;BME280;12195;55.790;37.572;2023-05-13T07:16:01;100245.34;;;20.61;27.85
20228;BME280;12195;55.790;37.572;2023-05-13T07:18:33;100238.77;;;20.65;28.14
20228;BME280;12195;55.790;37.572;2023-05-13T07:21:05;100247.89;;;20.72;27.75
20228;BME280;12195;55.790;37.572;2023-05-13T07:23:38;100240.75;;;20.72;27.00
20228;BME280;12195;55.790;37.572;2023-05-13T07:26:12;100235.84;;;20.77;27.70
20228;BME280;12195;55.790;37.572;2023-05-13T07:28:45;100239.80;;;20.83;27.28
20228;BME280;12195;55.790;37.572;2023-05-13T07:31:17;100243.03;;;20.86;27.58
20228;BME280;12195;55.790;37.572;2023-05-13T07:33:50;100238.42;;;20.88;27.90
20228;BME280;12195;55.790;37.572;2023-05-13T07:36:23;100233.08;;;20.88;27.48
20228;BME280;12195;55.790;37.572;2023-05-13T07:38:55;100244.78;;;20.97;26.91
20228;BME280;12195;55.790;37.572;2023-05-13T07:41:28;100238.91;;;21.03;26.86
20228;BME280;12195;55.790;37.572;2023-05-13T07:44:00;100243.00;;;21.07;27.02
20228;BME280;12195;55.790;37.572;2023-05-13T07:46:33;100236.41;;;21.11;26.20
20228;BME280;12195;55.790;37.572;2023-05-13T07:49:05;100239.08;;;21.11;26.30
20228;BME280;12195;55.790;37.572;2023-05-13T07:51:38;100247.12;;;21.20;26.32
20228;BME280;12195;55.790;37.572;2023-05-13T07:54:12;100240.06;;;21.19;26.47
20228;BME280;12195;55.790;37.572;2023-05-13T07:56:44;100244.28;;;21.22;26.47
20228;BME280;12195;55.790;37.572;2023-05-13T07:59:18;100240.34;;;21.26;25.66
20228;BME280;12195;55.790;37.572;2023-05-13T08:01:50;100243.75;;;21.28;24.66
20228;BME280;12195;55.790;37.572;2023-05-13T08:04:23;100232.48;;;21.34;24.92
20228;BME280;12195;55.790;37.572;2023-05-13T08:06:57;100249.38;;;21.34;25.28
20228;BME280;12195;55.790;37.572;2023-05-13T08:09:29;100249.11;;;21.37;25.23
20228;BME280;12195;55.790;37.572;2023-05-13T08:12:02;100240.10;;;21.38;24.84
20228;BME280;12195;55.790;37.572;2023-05-13T08:14:35;100239.40;;;21.46;25.63
20228;BME280;12195;55.790;37.572;2023-05-13T08:17:07;100240.66;;;21.42;24.99
20228;BME280;12195;55.790;37.572;2023-05-13T08:19:40;100246.45;;;21.47;25.72
20228;BME280;12195;55.790;37.572;2023-05-13T08:22:13;100250.54;;;21.51;25.01
20228;BME280;12195;55.790;37.572;2023-05-13T08:24:45;100241.39;;;21.53;24.14
20228;BME280;12195;55.790;37.572;2023-05-13T08:27:17;100220.01;;;21.53;24.87
20228;BME280;12195;55.790;37.572;2023-05-13T08:29:50;100239.96;;;21.59;24.45
20228;BME280;12195;55.790;37.572;2023-05-13T08:32:23;100232.39;;;21.64;24.40
20228;BME280;12195;55.790;37.572;2023-05-13T08:34:55;100235.38;;;21.70;24.24
20228;BME280;12195;55.790;37.572;2023-05-13T08:37:27;100238.73;;;21.72;23.79
20228;BME280;12195;55.790;37.572;2023-05-13T08:40:00;100227.73;;;21.66;24.25
20228;BME280;12195;55.790;37.572;2023-05-13T08:42:36;100235.75;;;21.66;24.33
20228;BME280;12195;55.790;37.572;2023-05-13T08:45:10;100239.14;;;21.68;23.93
20228;BME280;12195;55.790;37.572;2023-05-13T08:47:54;100250.66;;;21.68;23.85
20228;BME280;12195;55.790;37.572;2023-05-13T08:50:33;100245.08;;;21.81;24.03
20228;BME280;12195;55.790;37.572;2023-05-13T08:53:00;100224.37;;;21.64;23.85
20228;BME280;12195;55.790;37.572;2023-05-13T08:55:32;100228.76;;;21.84;24.25
20228;BME280;12195;55.790;37.572;2023-05-13T08:58:05;100228.04;;;21.72;24.82
20228;BME280;12195;55.790;37.572;2023-05-13T09:00:38;100222.83;;;21.80;24.82
20228;BME280;12195;55.790;37.572;2023-05-13T09:03:12;100224.09;;;21.86;24.26
20228;BME280;12195;55.790;37.572;2023-05-13T09:05:46;100222.42;;;21.85;24.59
20228;BME280;12195;55.790;37.572;2023-05-13T09:08:18;100224.09;;;21.86;24.48
20228;BME280;12195;55.790;37.572;2023-05-13T09:10:51;100205.78;;;21.91;24.95
20228;BME280;12195;55.790;37.572;2023-05-13T09:13:24;100217.33;;;22.01;25.33
20228;BME280;12195;55.790;37.572;2023-05-13T09:15:56;100208.44;;;22.10;25.30
20228;BME280;12195;55.790;37.572;2023-05-13T09:18:29;100207.84;;;22.16;24.82
20228;BME280;12195;55.790;37.572;2023-05-13T09:21:33;100188.27;;;22.25;24.80
20228;BME280;12195;55.790;37.572;2023-05-13T09:24:12;100201.33;;;22.28;24.62
20228;BME280;12195;55.790;37.572;2023-05-13T09:26:48;100192.34;;;22.29;23.11
20228;BME280;12195;55.790;37.572;2023-05-13T09:29:26;100202.33;;;22.27;23.07
20228;BME280;12195;55.790;37.572;2023-05-13T09:32:05;100204.86;;;22.28;23.44
20228;BME280;12195;55.790;37.572;2023-05-13T09:34:38;100195.02;;;22.29;23.30
20228;BME280;12195;55.790;37.572;2023-05-13T09:37:16;100193.73;;;22.33;23.28
20228;BME280;12195;55.790;37.572;2023-05-13T09:39:50;100184.11;;;22.40;23.18
20228;BME280;12195;55.790;37.572;2023-05-13T09:42:22;100181.83;;;22.45;22.84
20228;BME280;12195;55.790;37.572;2023-05-13T09:44:55;100174.11;;;22.51;22.79
20228;BME280;12195;55.790;37.572;2023-05-13T09:47:30;100186.75;;;22.59;23.34
20228;BME280;12195;55.790;37.572;2023-05-13T09:50:03;100184.13;;;22.76;23.06
20228;BME280;12195;55.790;37.572;2023-05-13T09:52:36;100189.28;;;22.60;22.47
20228;BME280;12195;55.790;37.572;2023-05-13T09:55:09;100186.61;;;22.60;22.42
20228;BME280;12195;55.790;37.572;2023-05-13T09:57:44;100180.39;;;22.60;22.43
20228;BME280;12195;55.790;37.572;2023-05-13T10:00:16;100185.75;;;22.60;23.11
20228;BME280;12195;55.790;37.572;2023-05-13T10:02:50;100190.31;;;22.77;23.09
20228;BME280;12195;55.790;37.572;2023-05-13T10:05:23;100182.03;;;22.70;23.50
20228;BME280;12195;55.790;37.572;2023-05-13T10:07:56;100169.88;;;22.76;23.57
20228;BME280;12195;55.790;37.572;2023-05-13T10:10:30;100174.34;;;22.85;23.88
20228;BME280;12195;55.790;37.572;2023-05-13T10:13:05;100165.63;;;22.83;23.06
20228;BME280;12195;55.790;37.572;2023-05-13T10:15:47;100170.84;;;22.84;23.09
20228;BME280;12195;55.790;37.572;2023-05-13T10:18:22;100165.01;;;22.89;23.62
20228;BME280;12195;55.790;37.572;2023-05-13T10:20:54;100173.05;;;22.89;23.11
20228;BME280;12195;55.790;37.572;2023-05-13T10:23:28;100160.74;;;22.96;23.26
20228;BME280;12195;55.790;37.572;2023-05-13T10:26:03;100159.83;;;23.05;23.34
20228;BME280;12195;55.790;37.572;2023-05-13T10:28:38;100168.95;;;23.12;23.61
20228;BME280;12195;55.790;37.572;2023-05-13T10:31:10;100162.30;;;23.16;23.36
20228;BME280;12195;55.790;37.572;2023-05-13T10:33:43;100153.52;;;23.23;23.76
20228;BME280;12195;55.790;37.572;2023-05-13T10:36:44;100161.50;;;22.88;25.19
20228;BME280;12195;55.790;37.572;2023-05-13T10:44:53;100172.27;;;22.79;23.30
20228;BME280;12195;55.790;37.572;2023-05-13T10:47:26;100152.94;;;23.02;23.04
20228;BME280;12195;55.790;37.572;2023-05-13T10:50:01;100150.84;;;23.23;23.16
20228;BME280;12195;55.790;37.572;2023-05-13T10:52:42;100160.48;;;23.51;23.02
20228;BME280;12195;55.790;37.572;2023-05-13T10:55:20;100161.11;;;23.45;22.50
20228;BME280;12195;55.790;37.572;2023-05-13T10:58:12;100144.17;;;23.45;22.71
20228;BME280;12195;55.790;37.572;2023-05-13T11:00:45;100149.39;;;23.46;22.93
20228;BME280;12195;55.790;37.572;2023-05-13T11:06:12;100144.17;;;23.45;23.22
20228;BME280;12195;55.790;37.572;2023-05-13T11:08:45;100136.13;;;23.45;23.04
20228;BME280;12195;55.790;37.572;2023-05-13T11:11:26;100131.14;;;23.50;23.35
20228;BME280;12195;55.790;37.572;2023-05-13T11:14:13;100131.57;;;23.63;23.41
20228;BME280;12195;55.790;37.572;2023-05-13T11:16:53;100134.47;;;24.12;22.22
20228;BME280;12195;55.790;37.572;2023-05-13T11:19:27;100126.90;;;24.75;21.77
20228;BME280;12195;55.790;37.572;2023-05-13T11:22:12;100117.58;;;26.07;20.27
20228;BME280;12195;55.790;37.572;2023-05-13T11:27:39;100122.07;;;28.77;18.16
20228;BME280;12195;55.790;37.572;2023-05-13T11:30:25;100129.84;;;29.37;16.62
20228;BME280;12195;55.790;37.572;2023-05-13T11:32:58;100134.44;;;29.00;17.21
20228;BME280;12195;55.790;37.572;2023-05-13T11:35:32;100128.80;;;28.23;17.68
20228;BME280;12195;55.790;37.572;2023-05-13T11:38:05;100134.41;;;27.47;18.30
20228;BME280;12195;55.790;37.572;2023-05-13T11:40:37;100132.73;;;26.93;18.71
20228;BME280;12195;55.790;37.572;2023-05-13T11:43:11;100126.62;;;26.69;18.54
20228;BME280;12195;55.790;37.572;2023-05-13T11:45:46;100123.80;;;26.93;18.39
20228;BME280;12195;55.790;37.572;2023-05-13T11:48:21;100127.28;;;27.32;18.37
20228;BME280;12195;55.790;37.572;2023-05-13T11:50:55;100111.10;;;28.64;16.79
20228;BME280;12195;55.790;37.572;2023-05-13T11:53:27;100121.50;;;29.80;16.83
20228;BME280;12195;55.790;37.572;2023-05-13T11:56:07;100117.55;;;32.10;14.01
20228;BME280;12195;55.790;37.572;2023-05-13T11:58:42;100101.23;;;33.80;12.87
20228;BME280;12195;55.790;37.572;2023-05-13T12:01:15;100097.19;;;35.56;11.81
20228;BME280;12195;55.790;37.572;2023-05-13T12:03:47;100090.81;;;36.82;10.98
20228;BME280;12195;55.790;37.572;2023-05-13T12:06:20;100086.27;;;38.10;10.03
20228;BME280;12195;55.790;37.572;2023-05-13T12:08:52;100086.65;;;38.78;9.73
20228;BME280;12195;55.790;37.572;2023-05-13T12:11:24;100076.68;;;39.78;9.30
20228;BME280;12195;55.790;37.572;2023-05-13T12:13:57;100085.30;;;40.94;9.12
20228;BME280;12195;55.790;37.572;2023-05-13T12:16:29;100075.79;;;41.52;8.55
20228;BME280;12195;55.790;37.572;2023-05-13T12:19:04;100081.56;;;41.86;7.98
20228;BME280;12195;55.790;37.572;2023-05-13T12:21:37;100072.69;;;42.24;7.88
20228;BME280;12195;55.790;37.572;2023-05-13T12:24:24;100079.08;;;42.83;7.62
20228;BME280;12195;55.790;37.572;2023-05-13T12:26:52;100077.90;;;43.42;7.37
20228;BME280;12195;55.790;37.572;2023-05-13T12:29:24;100071.19;;;44.10;7.07
20228;BME280;12195;55.790;37.572;2023-05-13T12:32:04;100075.19;;;43.66;7.01
20228;BME280;12195;55.790;37.572;2023-05-13T12:34:37;100078.47;;;42.27;7.77
20228;BME280;12195;55.790;37.572;2023-05-13T12:37:11;100076.03;;;41.66;8.12
20228;BME280;12195;55.790;37.572;2023-05-13T12:39:45;100077.42;;;41.58;8.10
20228;BME280;12195;55.790;37.572;2023-05-13T12:42:17;100064.20;;;41.85;7.76
20228;BME280;12195;55.790;37.572;2023-05-13T12:44:50;100065.02;;;41.56;7.89
20228;BME280;12195;55.790;37.572;2023-05-13T12:47:23;100065.29;;;41.89;7.83
20228;BME280;12195;55.790;37.572;2023-05-13T12:49:57;100070.41;;;42.41;7.45
20228;BME280;12195;55.790;37.572;2023-05-13T12:52:31;100078.16;;;42.97;7.20
20228;BME280;12195;55.790;37.572;2023-05-13T12:55:04;100071.41;;;43.57;6.96
20228;BME280;12195;55.790;37.572;2023-05-13T12:57:36;100058.63;;;44.41;6.57
20228;BME280;12195;55.790;37.572;2023-05-13T13:00:10;100059.78;;;45.20;6.36
20228;BME280;12195;55.790;37.572;2023-05-13T13:02:42;100059.31;;;45.82;6.12
20228;BME280;12195;55.790;37.572;2023-05-13T13:05:17;100055.50;;;45.78;6.15
20228;BME280;12195;55.790;37.572;2023-05-13T13:07:50;100061.88;;;44.48;6.80
20228;BME280;12195;55.790;37.572;2023-05-13T13:10:24;100047.34;;;44.09;6.82
20228;BME280;12195;55.790;37.572;2023-05-13T13:12:56;100049.06;;;43.77;6.95
20228;BME280;12195;55.790;37.572;2023-05-13T13:15:29;100050.03;;;42.07;7.70
20228;BME280;12195;55.790;37.572;2023-05-13T13:18:02;100063.99;;;42.55;7.82
20228;BME280;12195;55.790;37.572;2023-05-13T13:20:34;100044.97;;;42.97;7.69
20228;BME280;12195;55.790;37.572;2023-05-13T13:23:08;100041.22;;;43.89;7.34
20228;BME280;12195;55.790;37.572;2023-05-13T13:25:41;100037.94;;;44.10;7.15
20228;BME280;12195;55.790;37.572;2023-05-13T13:28:13;100039.84;;;45.18;6.70
20228;BME280;12195;55.790;37.572;2023-05-13T13:30:46;100053.98;;;45.85;6.34